Aeroporto :
LOGIN :

Iscrizione | Disclaimer

   EN    FR    IT 

 










Sommario :    VFR   VFR Marginale   IFR   IFR Intensivo   IFR Molto Intensivo
Visibilità : 
Base nubi : 
>= 8 km
>= 3000ft
5 / 8 km
1000 / 3000 ft
1500m / 5 km
500 / 1000 ft
800 / 1500m
200 / 500 ft
< 800m
< 200 ft
Simboli :   Temporali  Nebbia  Neve Forte  Precipitazioni Forti  Vento > 20 kt
SIGMETs :   Varie  Temporali  Ghiacco  Turbolenza  Onda orograficha  Ceneri Vulcaniche






- Altitudine del aeroporto : 1470 ft


LSMD - Dubendorf Military

ULTIMO METAR :
  • 060850Z 29013KT 9999 SCT021 21/15 Q1017 RMK BLU+

METARs OBSOLETI :
  • 060820Z 30015KT 280V340 9999 FEW024 BKN028 BKN051 20/15 Q1017 RMK BLU
  • 060750Z 26008KT 210V290 9999 BKN031 BKN041 22/15 Q1016 RMK BLU
  • 060720Z 27008KT 9999 BKN029 BKN060 22/15 Q1017 RMK BLU
  • 060650Z 27007KT 240V320 9999 FEW031 22/15 Q1017 RMK BLU+
  • 060620Z 27007KT 240V300 9999 FEW031 21/15 Q1016 RMK BLU+

Previsioni scadute.



MetMap, La meteo Aeronautica in un colpo d'occhio ! - Copyright ORBIFLY Dicembre 2007 - Disclaimer

ORBIFLY MET'MAP TEAM :

Programmazione e sviluppo : Alexandra Zaïnal
Concezione : Baudouin d'Aumeries
Aiuto per la programmazione : Marc-Olivier Méhu
Supporto tecnico e logistico : Manuel Goepfert
Aiuto per la traduzione : Arnaldo La Scala

Contatto : metmap@orbifly.com




FONTI E CREDITI :

   NOAA